sensor_id;sensor_type;location;lat;lon;timestamp;P1;durP1;ratioP1;P2;durP2;ratioP2
48516;SDS011;34310;51.904;4.256;2023-12-20T00:00:11;5.32;;;2.40;;
48516;SDS011;34310;51.904;4.256;2023-12-20T00:02:38;4.88;;;2.33;;
48516;SDS011;34310;51.904;4.256;2023-12-20T00:05:04;3.83;;;2.15;;
48516;SDS011;34310;51.904;4.256;2023-12-20T00:07:31;5.35;;;2.05;;
48516;SDS011;34310;51.904;4.256;2023-12-20T00:09:58;5.10;;;1.92;;
48516;SDS011;34310;51.904;4.256;2023-12-20T00:12:24;4.80;;;2.42;;
48516;SDS011;34310;51.904;4.256;2023-12-20T00:14:51;5.10;;;2.13;;
48516;SDS011;34310;51.904;4.256;2023-12-20T00:17:17;6.35;;;2.53;;
48516;SDS011;34310;51.904;4.256;2023-12-20T00:19:44;4.75;;;2.08;;
48516;SDS011;34310;51.904;4.256;2023-12-20T00:22:10;5.38;;;2.50;;
48516;SDS011;34310;51.904;4.256;2023-12-20T00:24:37;5.25;;;2.25;;
48516;SDS011;34310;51.904;4.256;2023-12-20T00:27:03;6.78;;;2.22;;
48516;SDS011;34310;51.904;4.256;2023-12-20T00:29:30;2.75;;;1.77;;
48516;SDS011;34310;51.904;4.256;2023-12-20T00:31:57;5.13;;;2.00;;
48516;SDS011;34310;51.904;4.256;2023-12-20T00:34:23;6.20;;;2.55;;
48516;SDS011;34310;51.904;4.256;2023-12-20T00:36:49;6.00;;;2.10;;
48516;SDS011;34310;51.904;4.256;2023-12-20T00:39:16;6.78;;;2.35;;
48516;SDS011;34310;51.904;4.256;2023-12-20T00:41:42;5.57;;;2.60;;
48516;SDS011;34310;51.904;4.256;2023-12-20T00:44:09;3.67;;;2.00;;
48516;SDS011;34310;51.904;4.256;2023-12-20T00:46:35;5.15;;;2.08;;
48516;SDS011;34310;51.904;4.256;2023-12-20T00:49:02;4.63;;;2.28;;
48516;SDS011;34310;51.904;4.256;2023-12-20T00:51:28;4.05;;;1.85;;
48516;SDS011;34310;51.904;4.256;2023-12-20T00:53:55;5.97;;;2.28;;
48516;SDS011;34310;51.904;4.256;2023-12-20T00:56:21;4.78;;;1.90;;
48516;SDS011;34310;51.904;4.256;2023-12-20T00:58:48;5.18;;;2.20;;
48516;SDS011;34310;51.904;4.256;2023-12-20T01:01:15;3.72;;;1.85;;
48516;SDS011;34310;51.904;4.256;2023-12-20T01:03:41;4.90;;;2.15;;
48516;SDS011;34310;51.904;4.256;2023-12-20T01:06:08;5.85;;;2.05;;
48516;SDS011;34310;51.904;4.256;2023-12-20T01:08:35;5.05;;;2.00;;
48516;SDS011;34310;51.904;4.256;2023-12-20T01:11:03;5.50;;;2.10;;
48516;SDS011;34310;51.904;4.256;2023-12-20T01:13:30;4.68;;;1.70;;
48516;SDS011;34310;51.904;4.256;2023-12-20T01:15:57;5.30;;;1.83;;
48516;SDS011;34310;51.904;4.256;2023-12-20T01:18:23;3.72;;;1.98;;
48516;SDS011;34310;51.904;4.256;2023-12-20T01:20:50;5.28;;;1.92;;
48516;SDS011;34310;51.904;4.256;2023-12-20T01:23:16;4.35;;;1.75;;
48516;SDS011;34310;51.904;4.256;2023-12-20T01:25:43;4.72;;;1.90;;
48516;SDS011;34310;51.904;4.256;2023-12-20T01:28:09;5.43;;;1.70;;
48516;SDS011;34310;51.904;4.256;2023-12-20T01:30:36;4.22;;;1.90;;
48516;SDS011;34310;51.904;4.256;2023-12-20T01:33:02;4.82;;;2.10;;
48516;SDS011;34310;51.904;4.256;2023-12-20T01:35:29;3.08;;;1.55;;
48516;SDS011;34310;51.904;4.256;2023-12-20T01:37:55;4.13;;;1.88;;
48516;SDS011;34310;51.904;4.256;2023-12-20T01:40:22;5.30;;;1.75;;
48516;SDS011;34310;51.904;4.256;2023-12-20T01:42:59;4.15;;;1.70;;
48516;SDS011;34310;51.904;4.256;2023-12-20T01:45:25;7.03;;;2.00;;
48516;SDS011;34310;51.904;4.256;2023-12-20T01:47:52;4.50;;;1.95;;
48516;SDS011;34310;51.904;4.256;2023-12-20T01:50:20;5.00;;;1.90;;
48516;SDS011;34310;51.904;4.256;2023-12-20T01:52:47;2.90;;;1.42;;
48516;SDS011;34310;51.904;4.256;2023-12-20T01:55:14;3.45;;;1.67;;
48516;SDS011;34310;51.904;4.256;2023-12-20T01:57:41;5.05;;;1.70;;
48516;SDS011;34310;51.904;4.256;2023-12-20T02:00:09;5.20;;;1.70;;
48516;SDS011;34310;51.904;4.256;2023-12-20T02:02:39;6.68;;;1.90;;
48516;SDS011;34310;51.904;4.256;2023-12-20T02:05:06;4.40;;;1.88;;
48516;SDS011;34310;51.904;4.256;2023-12-20T02:07:34;4.88;;;1.95;;
48516;SDS011;34310;51.904;4.256;2023-12-20T02:10:01;4.78;;;1.73;;
48516;SDS011;34310;51.904;4.256;2023-12-20T02:12:28;5.28;;;1.65;;
48516;SDS011;34310;51.904;4.256;2023-12-20T02:14:54;5.10;;;2.17;;
48516;SDS011;34310;51.904;4.256;2023-12-20T02:17:21;5.78;;;1.90;;
48516;SDS011;34310;51.904;4.256;2023-12-20T02:19:49;5.03;;;1.80;;
48516;SDS011;34310;51.904;4.256;2023-12-20T02:22:15;4.57;;;1.73;;
48516;SDS011;34310;51.904;4.256;2023-12-20T02:24:42;4.40;;;1.50;;
48516;SDS011;34310;51.904;4.256;2023-12-20T02:27:09;3.97;;;1.70;;
48516;SDS011;34310;51.904;4.256;2023-12-20T02:29:35;6.25;;;1.80;;
48516;SDS011;34310;51.904;4.256;2023-12-20T02:32:02;5.20;;;1.90;;
48516;SDS011;34310;51.904;4.256;2023-12-20T02:34:29;3.58;;;1.50;;
48516;SDS011;34310;51.904;4.256;2023-12-20T02:36:56;4.05;;;1.65;;
48516;SDS011;34310;51.904;4.256;2023-12-20T02:39:22;4.45;;;1.73;;
48516;SDS011;34310;51.904;4.256;2023-12-20T02:41:49;4.95;;;1.60;;
48516;SDS011;34310;51.904;4.256;2023-12-20T02:44:15;4.60;;;1.67;;
48516;SDS011;34310;51.904;4.256;2023-12-20T02:46:42;5.38;;;2.00;;
48516;SDS011;34310;51.904;4.256;2023-12-20T02:49:08;6.25;;;2.05;;
48516;SDS011;34310;51.904;4.256;2023-12-20T02:51:35;5.82;;;2.03;;
48516;SDS011;34310;51.904;4.256;2023-12-20T02:54:01;5.95;;;1.77;;
48516;SDS011;34310;51.904;4.256;2023-12-20T02:56:28;3.25;;;1.58;;
48516;SDS011;34310;51.904;4.256;2023-12-20T02:58:54;6.57;;;1.42;;
48516;SDS011;34310;51.904;4.256;2023-12-20T03:01:21;4.45;;;1.60;;
48516;SDS011;34310;51.904;4.256;2023-12-20T03:03:47;6.13;;;1.80;;
48516;SDS011;34310;51.904;4.256;2023-12-20T03:06:17;3.65;;;1.63;;
48516;SDS011;34310;51.904;4.256;2023-12-20T03:08:45;3.78;;;1.35;;
48516;SDS011;34310;51.904;4.256;2023-12-20T03:11:11;5.15;;;1.75;;
48516;SDS011;34310;51.904;4.256;2023-12-20T03:13:38;7.68;;;2.28;;
48516;SDS011;34310;51.904;4.256;2023-12-20T03:16:11;5.50;;;1.95;;
48516;SDS011;34310;51.904;4.256;2023-12-20T03:18:39;4.68;;;1.75;;
48516;SDS011;34310;51.904;4.256;2023-12-20T03:21:05;6.10;;;1.70;;
48516;SDS011;34310;51.904;4.256;2023-12-20T03:23:32;3.83;;;1.45;;
48516;SDS011;34310;51.904;4.256;2023-12-20T03:25:59;5.18;;;1.90;;
48516;SDS011;34310;51.904;4.256;2023-12-20T03:28:26;3.95;;;1.70;;
48516;SDS011;34310;51.904;4.256;2023-12-20T03:30:53;7.47;;;1.70;;
48516;SDS011;34310;51.904;4.256;2023-12-20T03:33:20;4.82;;;1.65;;
48516;SDS011;34310;51.904;4.256;2023-12-20T03:35:47;6.35;;;1.42;;
48516;SDS011;34310;51.904;4.256;2023-12-20T03:38:13;3.58;;;1.52;;
48516;SDS011;34310;51.904;4.256;2023-12-20T03:40:40;7.03;;;1.83;;
48516;SDS011;34310;51.904;4.256;2023-12-20T03:43:06;2.70;;;1.25;;
48516;SDS011;34310;51.904;4.256;2023-12-20T03:45:33;4.30;;;1.58;;
48516;SDS011;34310;51.904;4.256;2023-12-20T03:47:59;6.10;;;1.95;;
48516;SDS011;34310;51.904;4.256;2023-12-20T03:50:26;4.25;;;1.85;;
48516;SDS011;34310;51.904;4.256;2023-12-20T03:52:53;3.67;;;1.55;;
48516;SDS011;34310;51.904;4.256;2023-12-20T03:55:20;5.00;;;1.70;;
48516;SDS011;34310;51.904;4.256;2023-12-20T03:57:46;5.38;;;1.60;;
48516;SDS011;34310;51.904;4.256;2023-12-20T04:00:13;4.10;;;1.50;;
48516;SDS011;34310;51.904;4.256;2023-12-20T04:02:40;4.35;;;1.30;;
48516;SDS011;34310;51.904;4.256;2023-12-20T04:05:08;4.35;;;1.40;;
48516;SDS011;34310;51.904;4.256;2023-12-20T04:07:36;6.10;;;1.60;;
48516;SDS011;34310;51.904;4.256;2023-12-20T04:10:03;5.55;;;1.73;;
48516;SDS011;34310;51.904;4.256;2023-12-20T04:12:30;4.68;;;1.58;;
48516;SDS011;34310;51.904;4.256;2023-12-20T04:14:56;3.70;;;1.35;;
48516;SDS011;34310;51.904;4.256;2023-12-20T04:17:23;4.93;;;1.50;;
48516;SDS011;34310;51.904;4.256;2023-12-20T04:19:50;4.63;;;1.55;;
48516;SDS011;34310;51.904;4.256;2023-12-20T04:22:18;3.70;;;1.35;;
48516;SDS011;34310;51.904;4.256;2023-12-20T04:24:45;3.88;;;1.33;;
48516;SDS011;34310;51.904;4.256;2023-12-20T04:27:11;4.70;;;1.75;;
48516;SDS011;34310;51.904;4.256;2023-12-20T04:29:38;5.65;;;1.52;;
48516;SDS011;34310;51.904;4.256;2023-12-20T04:32:04;4.65;;;1.70;;
48516;SDS011;34310;51.904;4.256;2023-12-20T04:34:31;4.45;;;1.48;;
48516;SDS011;34310;51.904;4.256;2023-12-20T04:36:58;5.70;;;1.80;;
48516;SDS011;34310;51.904;4.256;2023-12-20T04:39:24;10.98;;;2.15;;
48516;SDS011;34310;51.904;4.256;2023-12-20T04:41:51;4.57;;;1.70;;
48516;SDS011;34310;51.904;4.256;2023-12-20T04:44:17;4.03;;;1.65;;
48516;SDS011;34310;51.904;4.256;2023-12-20T04:46:43;5.47;;;1.58;;
48516;SDS011;34310;51.904;4.256;2023-12-20T04:49:10;4.50;;;1.75;;
48516;SDS011;34310;51.904;4.256;2023-12-20T04:51:37;4.07;;;1.60;;
48516;SDS011;34310;51.904;4.256;2023-12-20T04:54:03;4.60;;;1.60;;
48516;SDS011;34310;51.904;4.256;2023-12-20T04:56:30;3.25;;;1.35;;
48516;SDS011;34310;51.904;4.256;2023-12-20T04:58:56;4.30;;;1.52;;
48516;SDS011;34310;51.904;4.256;2023-12-20T05:01:23;5.40;;;1.75;;
48516;SDS011;34310;51.904;4.256;2023-12-20T05:03:49;4.95;;;1.83;;
48516;SDS011;34310;51.904;4.256;2023-12-20T05:06:16;5.47;;;1.70;;
48516;SDS011;34310;51.904;4.256;2023-12-20T05:08:42;5.35;;;1.40;;
48516;SDS011;34310;51.904;4.256;2023-12-20T05:11:11;4.05;;;1.50;;
48516;SDS011;34310;51.904;4.256;2023-12-20T05:13:37;7.57;;;1.90;;
48516;SDS011;34310;51.904;4.256;2023-12-20T05:16:15;5.57;;;1.92;;
48516;SDS011;34310;51.904;4.256;2023-12-20T05:18:41;6.10;;;1.70;;
48516;SDS011;34310;51.904;4.256;2023-12-20T05:21:08;4.75;;;1.48;;
48516;SDS011;34310;51.904;4.256;2023-12-20T05:23:34;2.92;;;1.25;;
48516;SDS011;34310;51.904;4.256;2023-12-20T05:26:01;5.57;;;1.50;;
48516;SDS011;34310;51.904;4.256;2023-12-20T05:28:27;5.03;;;1.55;;
48516;SDS011;34310;51.904;4.256;2023-12-20T05:30:54;4.88;;;1.60;;
48516;SDS011;34310;51.904;4.256;2023-12-20T05:33:20;6.38;;;1.60;;
48516;SDS011;34310;51.904;4.256;2023-12-20T05:35:47;5.30;;;1.70;;
48516;SDS011;34310;51.904;4.256;2023-12-20T05:38:13;7.55;;;2.10;;
48516;SDS011;34310;51.904;4.256;2023-12-20T05:40:40;5.20;;;1.55;;
48516;SDS011;34310;51.904;4.256;2023-12-20T05:43:06;5.38;;;1.60;;
48516;SDS011;34310;51.904;4.256;2023-12-20T05:45:33;5.65;;;1.70;;
48516;SDS011;34310;51.904;4.256;2023-12-20T05:47:59;5.82;;;1.80;;
48516;SDS011;34310;51.904;4.256;2023-12-20T05:50:26;4.57;;;1.95;;
48516;SDS011;34310;51.904;4.256;2023-12-20T05:52:52;5.85;;;2.00;;
48516;SDS011;34310;51.904;4.256;2023-12-20T05:55:19;5.30;;;1.85;;
48516;SDS011;34310;51.904;4.256;2023-12-20T05:57:45;5.60;;;1.70;;
48516;SDS011;34310;51.904;4.256;2023-12-20T06:00:12;6.18;;;1.83;;
48516;SDS011;34310;51.904;4.256;2023-12-20T06:02:40;7.40;;;2.88;;
48516;SDS011;34310;51.904;4.256;2023-12-20T06:05:06;8.90;;;2.42;;
48516;SDS011;34310;51.904;4.256;2023-12-20T06:07:33;11.13;;;2.72;;
48516;SDS011;34310;51.904;4.256;2023-12-20T06:09:59;5.97;;;2.38;;
48516;SDS011;34310;51.904;4.256;2023-12-20T06:12:26;6.55;;;2.10;;
48516;SDS011;34310;51.904;4.256;2023-12-20T06:14:53;7.32;;;2.53;;
48516;SDS011;34310;51.904;4.256;2023-12-20T06:17:19;6.75;;;2.50;;
48516;SDS011;34310;51.904;4.256;2023-12-20T06:19:45;6.72;;;2.17;;
48516;SDS011;34310;51.904;4.256;2023-12-20T06:22:12;7.07;;;2.50;;
48516;SDS011;34310;51.904;4.256;2023-12-20T06:24:39;7.13;;;2.40;;
48516;SDS011;34310;51.904;4.256;2023-12-20T06:27:05;7.18;;;2.80;;
48516;SDS011;34310;51.904;4.256;2023-12-20T06:29:32;8.63;;;2.63;;
48516;SDS011;34310;51.904;4.256;2023-12-20T06:31:58;9.60;;;2.95;;
48516;SDS011;34310;51.904;4.256;2023-12-20T06:34:25;7.30;;;2.58;;
48516;SDS011;34310;51.904;4.256;2023-12-20T06:36:51;8.88;;;2.60;;
48516;SDS011;34310;51.904;4.256;2023-12-20T06:39:18;8.32;;;2.90;;
48516;SDS011;34310;51.904;4.256;2023-12-20T06:41:44;6.63;;;2.45;;
48516;SDS011;34310;51.904;4.256;2023-12-20T06:44:11;8.00;;;2.50;;
48516;SDS011;34310;51.904;4.256;2023-12-20T06:46:37;8.80;;;2.55;;
48516;SDS011;34310;51.904;4.256;2023-12-20T06:49:04;6.43;;;2.35;;
48516;SDS011;34310;51.904;4.256;2023-12-20T06:51:30;5.63;;;2.42;;
48516;SDS011;34310;51.904;4.256;2023-12-20T06:53:57;5.07;;;2.47;;
48516;SDS011;34310;51.904;4.256;2023-12-20T06:56:23;5.32;;;2.20;;
48516;SDS011;34310;51.904;4.256;2023-12-20T06:58:50;5.32;;;2.20;;
48516;SDS011;34310;51.904;4.256;2023-12-20T07:01:16;9.35;;;2.25;;
48516;SDS011;34310;51.904;4.256;2023-12-20T07:03:43;6.05;;;2.15;;
48516;SDS011;34310;51.904;4.256;2023-12-20T07:06:09;5.93;;;2.28;;
48516;SDS011;34310;51.904;4.256;2023-12-20T07:08:36;6.18;;;2.42;;
48516;SDS011;34310;51.904;4.256;2023-12-20T07:11:03;5.70;;;2.40;;
48516;SDS011;34310;51.904;4.256;2023-12-20T07:13:29;5.47;;;2.30;;
48516;SDS011;34310;51.904;4.256;2023-12-20T07:15:56;7.55;;;2.60;;
48516;SDS011;34310;51.904;4.256;2023-12-20T07:18:22;6.15;;;2.50;;
48516;SDS011;34310;51.904;4.256;2023-12-20T07:20:49;6.45;;;2.38;;
48516;SDS011;34310;51.904;4.256;2023-12-20T07:23:16;7.70;;;2.55;;
48516;SDS011;34310;51.904;4.256;2023-12-20T07:25:42;5.35;;;2.28;;
48516;SDS011;34310;51.904;4.256;2023-12-20T07:28:09;5.53;;;2.13;;
48516;SDS011;34310;51.904;4.256;2023-12-20T07:30:35;5.57;;;2.17;;
48516;SDS011;34310;51.904;4.256;2023-12-20T07:33:02;6.05;;;2.22;;
48516;SDS011;34310;51.904;4.256;2023-12-20T07:35:29;5.50;;;2.10;;
48516;SDS011;34310;51.904;4.256;2023-12-20T07:37:55;4.78;;;2.15;;
48516;SDS011;34310;51.904;4.256;2023-12-20T07:40:22;6.43;;;2.10;;
48516;SDS011;34310;51.904;4.256;2023-12-20T07:42:49;6.00;;;2.40;;
48516;SDS011;34310;51.904;4.256;2023-12-20T07:45:15;5.82;;;2.03;;
48516;SDS011;34310;51.904;4.256;2023-12-20T07:47:42;7.07;;;2.40;;
48516;SDS011;34310;51.904;4.256;2023-12-20T07:50:09;6.20;;;2.15;;
48516;SDS011;34310;51.904;4.256;2023-12-20T07:52:35;7.50;;;2.60;;
48516;SDS011;34310;51.904;4.256;2023-12-20T07:55:02;5.50;;;2.45;;
48516;SDS011;34310;51.904;4.256;2023-12-20T07:57:29;5.43;;;2.47;;
48516;SDS011;34310;51.904;4.256;2023-12-20T07:59:56;4.95;;;2.40;;
48516;SDS011;34310;51.904;4.256;2023-12-20T08:02:22;6.55;;;2.22;;
48516;SDS011;34310;51.904;4.256;2023-12-20T08:04:49;5.90;;;2.33;;
48516;SDS011;34310;51.904;4.256;2023-12-20T08:07:15;7.10;;;2.13;;
48516;SDS011;34310;51.904;4.256;2023-12-20T08:09:42;6.38;;;2.22;;
48516;SDS011;34310;51.904;4.256;2023-12-20T08:12:08;6.57;;;2.60;;
48516;SDS011;34310;51.904;4.256;2023-12-20T08:14:35;5.85;;;2.17;;
48516;SDS011;34310;51.904;4.256;2023-12-20T08:17:01;6.13;;;2.20;;
48516;SDS011;34310;51.904;4.256;2023-12-20T08:19:28;6.78;;;2.30;;
48516;SDS011;34310;51.904;4.256;2023-12-20T08:21:54;5.20;;;2.25;;
48516;SDS011;34310;51.904;4.256;2023-12-20T08:24:21;5.47;;;2.30;;
48516;SDS011;34310;51.904;4.256;2023-12-20T08:26:47;6.38;;;2.10;;
48516;SDS011;34310;51.904;4.256;2023-12-20T08:29:14;4.78;;;1.88;;
48516;SDS011;34310;51.904;4.256;2023-12-20T08:31:40;5.00;;;1.90;;
48516;SDS011;34310;51.904;4.256;2023-12-20T08:34:07;6.93;;;2.35;;
48516;SDS011;34310;51.904;4.256;2023-12-20T08:36:34;4.75;;;2.00;;
48516;SDS011;34310;51.904;4.256;2023-12-20T08:39:01;7.38;;;2.33;;
48516;SDS011;34310;51.904;4.256;2023-12-20T08:41:27;5.15;;;2.10;;
48516;SDS011;34310;51.904;4.256;2023-12-20T08:43:54;4.63;;;2.08;;
48516;SDS011;34310;51.904;4.256;2023-12-20T08:46:20;3.65;;;1.70;;
48516;SDS011;34310;51.904;4.256;2023-12-20T08:48:47;5.80;;;1.75;;
48516;SDS011;34310;51.904;4.256;2023-12-20T08:51:14;5.40;;;1.98;;
48516;SDS011;34310;51.904;4.256;2023-12-20T08:53:40;4.55;;;2.05;;
48516;SDS011;34310;51.904;4.256;2023-12-20T08:56:06;5.45;;;2.08;;
48516;SDS011;34310;51.904;4.256;2023-12-20T08:58:33;4.97;;;2.17;;
48516;SDS011;34310;51.904;4.256;2023-12-20T09:01:00;5.15;;;1.92;;
48516;SDS011;34310;51.904;4.256;2023-12-20T09:03:26;5.47;;;2.05;;
48516;SDS011;34310;51.904;4.256;2023-12-20T09:05:53;6.28;;;2.25;;
48516;SDS011;34310;51.904;4.256;2023-12-20T09:08:19;5.90;;;1.70;;
48516;SDS011;34310;51.904;4.256;2023-12-20T09:10:46;5.22;;;2.25;;
48516;SDS011;34310;51.904;4.256;2023-12-20T09:13:12;4.32;;;1.88;;
48516;SDS011;34310;51.904;4.256;2023-12-20T09:15:39;4.10;;;2.05;;
48516;SDS011;34310;51.904;4.256;2023-12-20T09:18:05;6.88;;;2.20;;
48516;SDS011;34310;51.904;4.256;2023-12-20T09:20:33;5.13;;;1.92;;
48516;SDS011;34310;51.904;4.256;2023-12-20T09:23:00;4.38;;;1.98;;
48516;SDS011;34310;51.904;4.256;2023-12-20T09:25:27;4.30;;;1.65;;
48516;SDS011;34310;51.904;4.256;2023-12-20T09:27:53;5.47;;;2.25;;
48516;SDS011;34310;51.904;4.256;2023-12-20T09:30:20;4.35;;;1.75;;
48516;SDS011;34310;51.904;4.256;2023-12-20T09:32:53;7.38;;;2.30;;
48516;SDS011;34310;51.904;4.256;2023-12-20T09:35:21;4.47;;;1.83;;
48516;SDS011;34310;51.904;4.256;2023-12-20T09:37:48;5.40;;;2.03;;
48516;SDS011;34310;51.904;4.256;2023-12-20T09:40:14;5.00;;;1.73;;
48516;SDS011;34310;51.904;4.256;2023-12-20T09:42:48;8.13;;;2.20;;
48516;SDS011;34310;51.904;4.256;2023-12-20T09:45:22;7.85;;;2.40;;
48516;SDS011;34310;51.904;4.256;2023-12-20T09:47:49;5.97;;;2.08;;
48516;SDS011;34310;51.904;4.256;2023-12-20T09:50:19;5.68;;;1.90;;
48516;SDS011;34310;51.904;4.256;2023-12-20T09:52:51;8.80;;;2.22;;
48516;SDS011;34310;51.904;4.256;2023-12-20T09:55:18;7.47;;;2.10;;
48516;SDS011;34310;51.904;4.256;2023-12-20T09:57:46;5.68;;;2.22;;
48516;SDS011;34310;51.904;4.256;2023-12-20T10:00:14;6.13;;;1.90;;
48516;SDS011;34310;51.904;4.256;2023-12-20T10:02:52;5.95;;;2.00;;
48516;SDS011;34310;51.904;4.256;2023-12-20T10:05:26;5.70;;;2.00;;
48516;SDS011;34310;51.904;4.256;2023-12-20T10:07:58;6.78;;;2.00;;
48516;SDS011;34310;51.904;4.256;2023-12-20T10:10:26;6.43;;;2.05;;
48516;SDS011;34310;51.904;4.256;2023-12-20T10:13:08;5.80;;;1.67;;
48516;SDS011;34310;51.904;4.256;2023-12-20T10:15:36;5.53;;;1.88;;
48516;SDS011;34310;51.904;4.256;2023-12-20T10:18:04;6.60;;;2.33;;
48516;SDS011;34310;51.904;4.256;2023-12-20T10:20:31;6.80;;;2.10;;
48516;SDS011;34310;51.904;4.256;2023-12-20T10:22:58;4.20;;;1.90;;
48516;SDS011;34310;51.904;4.256;2023-12-20T10:25:25;5.30;;;1.85;;
48516;SDS011;34310;51.904;4.256;2023-12-20T10:30:59;6.03;;;1.88;;
48516;SDS011;34310;51.904;4.256;2023-12-20T10:33:30;4.88;;;1.70;;
48516;SDS011;34310;51.904;4.256;2023-12-20T10:35:57;6.88;;;2.28;;
48516;SDS011;34310;51.904;4.256;2023-12-20T10:38:24;5.45;;;1.80;;
48516;SDS011;34310;51.904;4.256;2023-12-20T10:40:53;4.50;;;2.00;;
48516;SDS011;34310;51.904;4.256;2023-12-20T10:43:22;6.65;;;2.25;;
48516;SDS011;34310;51.904;4.256;2023-12-20T10:45:50;3.65;;;1.65;;
48516;SDS011;34310;51.904;4.256;2023-12-20T10:48:16;4.68;;;1.95;;
48516;SDS011;34310;51.904;4.256;2023-12-20T10:50:44;4.38;;;1.65;;
48516;SDS011;34310;51.904;4.256;2023-12-20T10:53:11;4.82;;;1.70;;
48516;SDS011;34310;51.904;4.256;2023-12-20T10:55:39;3.55;;;1.67;;
48516;SDS011;34310;51.904;4.256;2023-12-20T10:58:07;5.10;;;1.85;;
48516;SDS011;34310;51.904;4.256;2023-12-20T11:00:39;3.88;;;1.40;;
48516;SDS011;34310;51.904;4.256;2023-12-20T11:03:06;4.47;;;1.90;;
48516;SDS011;34310;51.904;4.256;2023-12-20T11:05:38;6.60;;;1.98;;
48516;SDS011;34310;51.904;4.256;2023-12-20T11:08:08;4.80;;;1.35;;
48516;SDS011;34310;51.904;4.256;2023-12-20T11:10:48;6.13;;;1.80;;
48516;SDS011;34310;51.904;4.256;2023-12-20T11:13:22;5.32;;;1.58;;
48516;SDS011;34310;51.904;4.256;2023-12-20T11:15:53;5.40;;;1.80;;
48516;SDS011;34310;51.904;4.256;2023-12-20T11:18:20;5.40;;;2.08;;
48516;SDS011;34310;51.904;4.256;2023-12-20T11:20:55;4.07;;;1.60;;
48516;SDS011;34310;51.904;4.256;2023-12-20T11:23:22;6.20;;;2.10;;
48516;SDS011;34310;51.904;4.256;2023-12-20T11:25:52;4.85;;;2.15;;
48516;SDS011;34310;51.904;4.256;2023-12-20T11:28:22;5.70;;;1.63;;
48516;SDS011;34310;51.904;4.256;2023-12-20T11:30:51;5.28;;;1.80;;
48516;SDS011;34310;51.904;4.256;2023-12-20T11:33:52;3.78;;;1.42;;
48516;SDS011;34310;51.904;4.256;2023-12-20T11:36:16;5.82;;;2.00;;
48516;SDS011;34310;51.904;4.256;2023-12-20T11:38:57;4.65;;;1.58;;
48516;SDS011;34310;51.904;4.256;2023-12-20T11:41:25;4.10;;;1.77;;
48516;SDS011;34310;51.904;4.256;2023-12-20T11:43:55;5.28;;;1.65;;
48516;SDS011;34310;51.904;4.256;2023-12-20T11:46:22;3.88;;;1.42;;
48516;SDS011;34310;51.904;4.256;2023-12-20T11:48:49;4.35;;;1.35;;
48516;SDS011;34310;51.904;4.256;2023-12-20T11:51:15;4.05;;;1.52;;
48516;SDS011;34310;51.904;4.256;2023-12-20T11:53:42;4.85;;;1.65;;
48516;SDS011;34310;51.904;4.256;2023-12-20T11:56:09;5.10;;;1.83;;
48516;SDS011;34310;51.904;4.256;2023-12-20T11:58:36;5.32;;;1.73;;
48516;SDS011;34310;51.904;4.256;2023-12-20T12:01:03;5.18;;;1.50;;
48516;SDS011;34310;51.904;4.256;2023-12-20T12:03:31;4.80;;;1.52;;
48516;SDS011;34310;51.904;4.256;2023-12-20T12:05:57;3.70;;;1.50;;
48516;SDS011;34310;51.904;4.256;2023-12-20T12:08:24;4.80;;;1.67;;
48516;SDS011;34310;51.904;4.256;2023-12-20T12:10:50;5.93;;;2.03;;
48516;SDS011;34310;51.904;4.256;2023-12-20T12:13:17;5.85;;;1.92;;
48516;SDS011;34310;51.904;4.256;2023-12-20T12:15:43;5.20;;;1.60;;
48516;SDS011;34310;51.904;4.256;2023-12-20T12:18:10;4.93;;;1.77;;
48516;SDS011;34310;51.904;4.256;2023-12-20T12:20:37;5.57;;;1.60;;
48516;SDS011;34310;51.904;4.256;2023-12-20T12:23:04;5.05;;;1.65;;
48516;SDS011;34310;51.904;4.256;2023-12-20T12:25:32;5.28;;;1.75;;
48516;SDS011;34310;51.904;4.256;2023-12-20T12:28:06;5.47;;;1.63;;
48516;SDS011;34310;51.904;4.256;2023-12-20T12:30:33;5.32;;;1.75;;
48516;SDS011;34310;51.904;4.256;2023-12-20T12:33:04;5.82;;;1.90;;
48516;SDS011;34310;51.904;4.256;2023-12-20T12:35:31;3.88;;;1.35;;
48516;SDS011;34310;51.904;4.256;2023-12-20T12:37:58;6.55;;;1.60;;
48516;SDS011;34310;51.904;4.256;2023-12-20T12:40:25;5.50;;;1.70;;
48516;SDS011;34310;51.904;4.256;2023-12-20T12:42:51;5.53;;;1.80;;
48516;SDS011;34310;51.904;4.256;2023-12-20T12:45:18;4.68;;;1.80;;
48516;SDS011;34310;51.904;4.256;2023-12-20T12:47:44;4.97;;;1.73;;
48516;SDS011;34310;51.904;4.256;2023-12-20T12:50:11;5.38;;;1.52;;
48516;SDS011;34310;51.904;4.256;2023-12-20T12:52:38;4.88;;;1.48;;
48516;SDS011;34310;51.904;4.256;2023-12-20T12:55:05;5.05;;;1.75;;
48516;SDS011;34310;51.904;4.256;2023-12-20T12:57:32;3.75;;;1.30;;
48516;SDS011;34310;51.904;4.256;2023-12-20T12:59:59;6.22;;;1.70;;
48516;SDS011;34310;51.904;4.256;2023-12-20T13:02:25;3.78;;;1.45;;
48516;SDS011;34310;51.904;4.256;2023-12-20T13:04:52;5.45;;;1.88;;
48516;SDS011;34310;51.904;4.256;2023-12-20T13:07:18;5.00;;;1.65;;
48516;SDS011;34310;51.904;4.256;2023-12-20T13:09:45;3.80;;;1.50;;
48516;SDS011;34310;51.904;4.256;2023-12-20T13:12:11;3.88;;;1.50;;
48516;SDS011;34310;51.904;4.256;2023-12-20T13:14:38;5.05;;;1.50;;
48516;SDS011;34310;51.904;4.256;2023-12-20T13:17:04;4.78;;;1.42;;
48516;SDS011;34310;51.904;4.256;2023-12-20T13:19:31;4.00;;;1.52;;
48516;SDS011;34310;51.904;4.256;2023-12-20T13:21:58;5.03;;;1.50;;
48516;SDS011;34310;51.904;4.256;2023-12-20T13:24:25;5.68;;;1.52;;
48516;SDS011;34310;51.904;4.256;2023-12-20T13:26:51;6.38;;;1.63;;
48516;SDS011;34310;51.904;4.256;2023-12-20T13:29:18;4.40;;;1.50;;
48516;SDS011;34310;51.904;4.256;2023-12-20T13:31:44;6.65;;;1.80;;
48516;SDS011;34310;51.904;4.256;2023-12-20T13:34:11;5.30;;;1.70;;
48516;SDS011;34310;51.904;4.256;2023-12-20T13:36:37;4.95;;;1.58;;
48516;SDS011;34310;51.904;4.256;2023-12-20T13:39:04;3.20;;;1.42;;
48516;SDS011;34310;51.904;4.256;2023-12-20T13:41:31;3.65;;;1.38;;
48516;SDS011;34310;51.904;4.256;2023-12-20T13:43:57;3.22;;;1.10;;
48516;SDS011;34310;51.904;4.256;2023-12-20T13:46:24;5.68;;;2.17;;
48516;SDS011;34310;51.904;4.256;2023-12-20T13:48:50;3.67;;;1.50;;
48516;SDS011;34310;51.904;4.256;2023-12-20T13:51:17;5.15;;;1.30;;
48516;SDS011;34310;51.904;4.256;2023-12-20T13:53:50;7.32;;;1.92;;
48516;SDS011;34310;51.904;4.256;2023-12-20T13:56:16;5.65;;;1.73;;
48516;SDS011;34310;51.904;4.256;2023-12-20T13:58:43;6.05;;;1.63;;
48516;SDS011;34310;51.904;4.256;2023-12-20T14:01:09;6.38;;;1.70;;
48516;SDS011;34310;51.904;4.256;2023-12-20T14:03:36;5.90;;;1.88;;
48516;SDS011;34310;51.904;4.256;2023-12-20T14:06:03;7.72;;;2.20;;
48516;SDS011;34310;51.904;4.256;2023-12-20T14:08:29;6.47;;;1.70;;
48516;SDS011;34310;51.904;4.256;2023-12-20T14:10:56;4.30;;;1.73;;
48516;SDS011;34310;51.904;4.256;2023-12-20T14:13:23;5.50;;;1.65;;
48516;SDS011;34310;51.904;4.256;2023-12-20T14:15:49;6.18;;;1.83;;
48516;SDS011;34310;51.904;4.256;2023-12-20T14:18:16;5.72;;;1.60;;
48516;SDS011;34310;51.904;4.256;2023-12-20T14:20:42;6.22;;;1.83;;
48516;SDS011;34310;51.904;4.256;2023-12-20T14:23:09;7.90;;;2.28;;
48516;SDS011;34310;51.904;4.256;2023-12-20T14:25:35;7.03;;;1.60;;
48516;SDS011;34310;51.904;4.256;2023-12-20T14:28:16;5.13;;;1.90;;
48516;SDS011;34310;51.904;4.256;2023-12-20T14:30:43;3.88;;;1.45;;
48516;SDS011;34310;51.904;4.256;2023-12-20T14:33:09;6.05;;;1.70;;
48516;SDS011;34310;51.904;4.256;2023-12-20T14:35:36;4.75;;;1.95;;
48516;SDS011;34310;51.904;4.256;2023-12-20T14:38:02;4.93;;;1.30;;
48516;SDS011;34310;51.904;4.256;2023-12-20T14:40:29;6.32;;;1.50;;
48516;SDS011;34310;51.904;4.256;2023-12-20T14:42:56;5.45;;;1.63;;
48516;SDS011;34310;51.904;4.256;2023-12-20T14:45:22;6.50;;;1.90;;
48516;SDS011;34310;51.904;4.256;2023-12-20T14:47:49;6.63;;;2.10;;
48516;SDS011;34310;51.904;4.256;2023-12-20T14:50:16;4.72;;;1.50;;